sensor_id;sensor_type;location;lat;lon;timestamp;P1;P2;P0
49644;PMS5003;36494;50.730;-1.932;2022-07-29T00:00:14;18;18;
49644;PMS5003;36494;50.730;-1.932;2022-07-29T00:02:39;17;17;
49644;PMS5003;36494;50.730;-1.932;2022-07-29T00:05:04;19;18;
49644;PMS5003;36494;50.730;-1.932;2022-07-29T00:07:30;19;19;
49644;PMS5003;36494;50.730;-1.932;2022-07-29T00:09:56;21;20;
49644;PMS5003;36494;50.730;-1.932;2022-07-29T00:12:22;19;19;
49644;PMS5003;36494;50.730;-1.932;2022-07-29T00:14:46;20;20;
49644;PMS5003;36494;50.730;-1.932;2022-07-29T00:17:11;21;20;
49644;PMS5003;36494;50.730;-1.932;2022-07-29T00:19:36;21;20;
49644;PMS5003;36494;50.730;-1.932;2022-07-29T00:22:02;18;18;
49644;PMS5003;36494;50.730;-1.932;2022-07-29T00:24:27;19;18;
49644;PMS5003;36494;50.730;-1.932;2022-07-29T00:26:52;25;25;
49644;PMS5003;36494;50.730;-1.932;2022-07-29T00:29:18;23;21;
49644;PMS5003;36494;50.730;-1.932;2022-07-29T00:31:43;27;24;
49644;PMS5003;36494;50.730;-1.932;2022-07-29T00:34:08;23;22;
49644;PMS5003;36494;50.730;-1.932;2022-07-29T00:36:34;24;23;
49644;PMS5003;36494;50.730;-1.932;2022-07-29T00:38:59;21;21;
49644;PMS5003;36494;50.730;-1.932;2022-07-29T00:41:24;20;20;
49644;PMS5003;36494;50.730;-1.932;2022-07-29T00:43:49;22;22;
49644;PMS5003;36494;50.730;-1.932;2022-07-29T00:46:14;24;23;
49644;PMS5003;36494;50.730;-1.932;2022-07-29T00:48:39;26;24;
49644;PMS5003;36494;50.730;-1.932;2022-07-29T00:51:05;23;23;
49644;PMS5003;36494;50.730;-1.932;2022-07-29T00:53:30;20;20;
49644;PMS5003;36494;50.730;-1.932;2022-07-29T00:55:55;24;23;
49644;PMS5003;36494;50.730;-1.932;2022-07-29T00:58:20;21;21;
49644;PMS5003;36494;50.730;-1.932;2022-07-29T01:00:45;23;23;
49644;PMS5003;36494;50.730;-1.932;2022-07-29T01:03:10;24;24;
49644;PMS5003;36494;50.730;-1.932;2022-07-29T01:05:36;20;19;
49644;PMS5003;36494;50.730;-1.932;2022-07-29T01:08:01;23;23;
49644;PMS5003;36494;50.730;-1.932;2022-07-29T01:10:26;20;20;
49644;PMS5003;36494;50.730;-1.932;2022-07-29T01:12:52;23;23;
49644;PMS5003;36494;50.730;-1.932;2022-07-29T01:15:18;21;21;
49644;PMS5003;36494;50.730;-1.932;2022-07-29T01:17:44;22;22;
49644;PMS5003;36494;50.730;-1.932;2022-07-29T01:20:10;20;20;
49644;PMS5003;36494;50.730;-1.932;2022-07-29T01:22:36;23;22;
49644;PMS5003;36494;50.730;-1.932;2022-07-29T01:25:06;22;21;
49644;PMS5003;36494;50.730;-1.932;2022-07-29T01:27:30;24;22;
49644;PMS5003;36494;50.730;-1.932;2022-07-29T01:29:52;22;22;
49644;PMS5003;36494;50.730;-1.932;2022-07-29T01:32:18;23;22;
49644;PMS5003;36494;50.730;-1.932;2022-07-29T01:34:44;20;20;
49644;PMS5003;36494;50.730;-1.932;2022-07-29T01:37:09;22;22;
49644;PMS5003;36494;50.730;-1.932;2022-07-29T01:39:34;22;20;
49644;PMS5003;36494;50.730;-1.932;2022-07-29T01:42:01;21;20;
49644;PMS5003;36494;50.730;-1.932;2022-07-29T01:44:27;21;21;
49644;PMS5003;36494;50.730;-1.932;2022-07-29T01:46:51;23;22;
49644;PMS5003;36494;50.730;-1.932;2022-07-29T01:49:16;21;20;
49644;PMS5003;36494;50.730;-1.932;2022-07-29T01:51:42;22;22;
49644;PMS5003;36494;50.730;-1.932;2022-07-29T01:54:08;23;22;
49644;PMS5003;36494;50.730;-1.932;2022-07-29T01:56:31;21;21;
49644;PMS5003;36494;50.730;-1.932;2022-07-29T01:58:57;20;18;
49644;PMS5003;36494;50.730;-1.932;2022-07-29T02:01:23;20;20;
49644;PMS5003;36494;50.730;-1.932;2022-07-29T02:03:49;20;19;
49644;PMS5003;36494;50.730;-1.932;2022-07-29T02:06:16;20;19;
49644;PMS5003;36494;50.730;-1.932;2022-07-29T02:08:40;19;19;
49644;PMS5003;36494;50.730;-1.932;2022-07-29T02:11:06;18;18;
49644;PMS5003;36494;50.730;-1.932;2022-07-29T02:13:31;24;22;
49644;PMS5003;36494;50.730;-1.932;2022-07-29T02:15:57;20;19;
49644;PMS5003;36494;50.730;-1.932;2022-07-29T02:18:22;23;23;
49644;PMS5003;36494;50.730;-1.932;2022-07-29T02:20:48;20;20;
49644;PMS5003;36494;50.730;-1.932;2022-07-29T02:23:14;20;19;
49644;PMS5003;36494;50.730;-1.932;2022-07-29T02:25:38;19;19;
49644;PMS5003;36494;50.730;-1.932;2022-07-29T02:28:03;20;18;
49644;PMS5003;36494;50.730;-1.932;2022-07-29T02:30:28;18;18;
49644;PMS5003;36494;50.730;-1.932;2022-07-29T02:32:54;18;18;
49644;PMS5003;36494;50.730;-1.932;2022-07-29T02:35:19;20;20;
49644;PMS5003;36494;50.730;-1.932;2022-07-29T02:37:44;22;21;
49644;PMS5003;36494;50.730;-1.932;2022-07-29T02:40:10;19;18;
49644;PMS5003;36494;50.730;-1.932;2022-07-29T02:42:35;21;21;
49644;PMS5003;36494;50.730;-1.932;2022-07-29T02:45:00;21;20;
49644;PMS5003;36494;50.730;-1.932;2022-07-29T02:47:27;20;19;
49644;PMS5003;36494;50.730;-1.932;2022-07-29T02:49:52;21;19;
49644;PMS5003;36494;50.730;-1.932;2022-07-29T02:52:16;19;19;
49644;PMS5003;36494;50.730;-1.932;2022-07-29T02:54:42;20;19;
49644;PMS5003;36494;50.730;-1.932;2022-07-29T02:57:09;21;20;
49644;PMS5003;36494;50.730;-1.932;2022-07-29T02:59:32;21;20;
49644;PMS5003;36494;50.730;-1.932;2022-07-29T03:01:57;19;18;
49644;PMS5003;36494;50.730;-1.932;2022-07-29T03:04:22;18;18;
49644;PMS5003;36494;50.730;-1.932;2022-07-29T03:06:48;16;16;
49644;PMS5003;36494;50.730;-1.932;2022-07-29T03:11:38;17;17;
49644;PMS5003;36494;50.730;-1.932;2022-07-29T03:14:04;18;18;
49644;PMS5003;36494;50.730;-1.932;2022-07-29T03:16:29;17;17;
49644;PMS5003;36494;50.730;-1.932;2022-07-29T03:18:54;14;13;
49644;PMS5003;36494;50.730;-1.932;2022-07-29T03:21:19;16;15;
49644;PMS5003;36494;50.730;-1.932;2022-07-29T03:23:44;15;15;
49644;PMS5003;36494;50.730;-1.932;2022-07-29T03:26:10;14;14;
49644;PMS5003;36494;50.730;-1.932;2022-07-29T03:28:35;16;15;
49644;PMS5003;36494;50.730;-1.932;2022-07-29T03:31:00;16;16;
49644;PMS5003;36494;50.730;-1.932;2022-07-29T03:33:25;16;15;
49644;PMS5003;36494;50.730;-1.932;2022-07-29T03:35:51;16;15;
49644;PMS5003;36494;50.730;-1.932;2022-07-29T03:38:16;15;15;
49644;PMS5003;36494;50.730;-1.932;2022-07-29T03:40:42;15;14;
49644;PMS5003;36494;50.730;-1.932;2022-07-29T03:43:06;15;15;
49644;PMS5003;36494;50.730;-1.932;2022-07-29T03:45:32;17;17;
49644;PMS5003;36494;50.730;-1.932;2022-07-29T03:47:59;15;15;
49644;PMS5003;36494;50.730;-1.932;2022-07-29T03:50:22;20;20;
49644;PMS5003;36494;50.730;-1.932;2022-07-29T03:52:48;18;16;
49644;PMS5003;36494;50.730;-1.932;2022-07-29T03:55:13;15;15;
49644;PMS5003;36494;50.730;-1.932;2022-07-29T03:57:40;17;16;
49644;PMS5003;36494;50.730;-1.932;2022-07-29T04:00:04;18;16;
49644;PMS5003;36494;50.730;-1.932;2022-07-29T04:02:29;16;14;
49644;PMS5003;36494;50.730;-1.932;2022-07-29T04:04:54;15;15;
49644;PMS5003;36494;50.730;-1.932;2022-07-29T04:07:19;15;15;
49644;PMS5003;36494;50.730;-1.932;2022-07-29T04:09:45;15;13;
49644;PMS5003;36494;50.730;-1.932;2022-07-29T04:12:10;16;16;
49644;PMS5003;36494;50.730;-1.932;2022-07-29T04:14:35;12;12;
49644;PMS5003;36494;50.730;-1.932;2022-07-29T04:17:00;15;15;
49644;PMS5003;36494;50.730;-1.932;2022-07-29T04:19:26;14;14;
49644;PMS5003;36494;50.730;-1.932;2022-07-29T04:21:51;12;12;
49644;PMS5003;36494;50.730;-1.932;2022-07-29T04:24:16;17;17;
49644;PMS5003;36494;50.730;-1.932;2022-07-29T04:26:42;13;13;
49644;PMS5003;36494;50.730;-1.932;2022-07-29T04:29:07;14;12;
49644;PMS5003;36494;50.730;-1.932;2022-07-29T04:31:32;14;13;
49644;PMS5003;36494;50.730;-1.932;2022-07-29T04:33:58;14;14;
49644;PMS5003;36494;50.730;-1.932;2022-07-29T04:36:23;12;12;
49644;PMS5003;36494;50.730;-1.932;2022-07-29T04:38:48;12;12;
49644;PMS5003;36494;50.730;-1.932;2022-07-29T04:41:13;11;10;
49644;PMS5003;36494;50.730;-1.932;2022-07-29T04:43:38;13;13;
49644;PMS5003;36494;50.730;-1.932;2022-07-29T04:46:05;12;12;
49644;PMS5003;36494;50.730;-1.932;2022-07-29T04:48:29;13;12;
49644;PMS5003;36494;50.730;-1.932;2022-07-29T04:50:55;14;13;
49644;PMS5003;36494;50.730;-1.932;2022-07-29T04:53:20;13;12;
49644;PMS5003;36494;50.730;-1.932;2022-07-29T04:55:45;12;12;
49644;PMS5003;36494;50.730;-1.932;2022-07-29T04:58:11;14;14;
49644;PMS5003;36494;50.730;-1.932;2022-07-29T05:00:36;13;13;
49644;PMS5003;36494;50.730;-1.932;2022-07-29T05:03:01;12;11;
49644;PMS5003;36494;50.730;-1.932;2022-07-29T05:05:27;12;11;
49644;PMS5003;36494;50.730;-1.932;2022-07-29T05:07:52;14;13;
49644;PMS5003;36494;50.730;-1.932;2022-07-29T05:10:17;11;11;
49644;PMS5003;36494;50.730;-1.932;2022-07-29T05:12:42;12;11;
49644;PMS5003;36494;50.730;-1.932;2022-07-29T05:15:08;12;12;
49644;PMS5003;36494;50.730;-1.932;2022-07-29T05:17:33;10;10;
49644;PMS5003;36494;50.730;-1.932;2022-07-29T05:19:59;12;12;
49644;PMS5003;36494;50.730;-1.932;2022-07-29T05:22:24;13;12;
49644;PMS5003;36494;50.730;-1.932;2022-07-29T05:24:49;10;9;
49644;PMS5003;36494;50.730;-1.932;2022-07-29T05:27:15;12;12;
49644;PMS5003;36494;50.730;-1.932;2022-07-29T05:29:40;10;10;
49644;PMS5003;36494;50.730;-1.932;2022-07-29T05:32:05;12;11;
49644;PMS5003;36494;50.730;-1.932;2022-07-29T05:34:31;11;10;
49644;PMS5003;36494;50.730;-1.932;2022-07-29T05:36:56;10;10;
49644;PMS5003;36494;50.730;-1.932;2022-07-29T05:39:21;10;10;
49644;PMS5003;36494;50.730;-1.932;2022-07-29T05:41:47;9;8;
49644;PMS5003;36494;50.730;-1.932;2022-07-29T05:44:12;12;12;
49644;PMS5003;36494;50.730;-1.932;2022-07-29T05:46:37;9;9;
49644;PMS5003;36494;50.730;-1.932;2022-07-29T05:49:03;9;9;
49644;PMS5003;36494;50.730;-1.932;2022-07-29T05:51:28;11;10;
49644;PMS5003;36494;50.730;-1.932;2022-07-29T05:53:53;10;10;
49644;PMS5003;36494;50.730;-1.932;2022-07-29T05:56:19;11;11;
49644;PMS5003;36494;50.730;-1.932;2022-07-29T05:58:44;12;12;
49644;PMS5003;36494;50.730;-1.932;2022-07-29T06:01:10;9;9;
49644;PMS5003;36494;50.730;-1.932;2022-07-29T06:03:35;10;10;
49644;PMS5003;36494;50.730;-1.932;2022-07-29T06:06:00;10;10;
49644;PMS5003;36494;50.730;-1.932;2022-07-29T06:08:26;8;8;
49644;PMS5003;36494;50.730;-1.932;2022-07-29T06:10:51;8;8;
49644;PMS5003;36494;50.730;-1.932;2022-07-29T06:13:16;10;9;
49644;PMS5003;36494;50.730;-1.932;2022-07-29T06:15:42;8;8;
49644;PMS5003;36494;50.730;-1.932;2022-07-29T06:18:07;11;11;
49644;PMS5003;36494;50.730;-1.932;2022-07-29T06:20:32;11;11;
49644;PMS5003;36494;50.730;-1.932;2022-07-29T06:22:58;9;9;
49644;PMS5003;36494;50.730;-1.932;2022-07-29T06:25:23;11;10;
49644;PMS5003;36494;50.730;-1.932;2022-07-29T06:27:48;8;8;
49644;PMS5003;36494;50.730;-1.932;2022-07-29T06:30:13;8;7;
49644;PMS5003;36494;50.730;-1.932;2022-07-29T06:32:39;8;7;
49644;PMS5003;36494;50.730;-1.932;2022-07-29T06:35:04;9;9;
49644;PMS5003;36494;50.730;-1.932;2022-07-29T06:37:29;8;8;
49644;PMS5003;36494;50.730;-1.932;2022-07-29T06:39:55;9;8;
49644;PMS5003;36494;50.730;-1.932;2022-07-29T06:42:20;7;7;
49644;PMS5003;36494;50.730;-1.932;2022-07-29T06:44:45;8;7;
49644;PMS5003;36494;50.730;-1.932;2022-07-29T06:47:11;7;6;
49644;PMS5003;36494;50.730;-1.932;2022-07-29T06:49:36;7;7;
49644;PMS5003;36494;50.730;-1.932;2022-07-29T06:52:01;8;8;
49644;PMS5003;36494;50.730;-1.932;2022-07-29T06:54:27;7;7;
49644;PMS5003;36494;50.730;-1.932;2022-07-29T06:56:52;6;6;
49644;PMS5003;36494;50.730;-1.932;2022-07-29T06:59:17;7;7;
49644;PMS5003;36494;50.730;-1.932;2022-07-29T07:01:43;8;8;
49644;PMS5003;36494;50.730;-1.932;2022-07-29T07:04:08;7;7;
49644;PMS5003;36494;50.730;-1.932;2022-07-29T07:06:34;7;7;
49644;PMS5003;36494;50.730;-1.932;2022-07-29T07:08:59;7;7;
49644;PMS5003;36494;50.730;-1.932;2022-07-29T07:11:24;11;11;
49644;PMS5003;36494;50.730;-1.932;2022-07-29T07:13:50;11;10;
49644;PMS5003;36494;50.730;-1.932;2022-07-29T07:16:15;9;8;
49644;PMS5003;36494;50.730;-1.932;2022-07-29T07:18:40;9;7;
49644;PMS5003;36494;50.730;-1.932;2022-07-29T07:21:06;10;10;
49644;PMS5003;36494;50.730;-1.932;2022-07-29T07:23:31;9;9;
49644;PMS5003;36494;50.730;-1.932;2022-07-29T07:25:56;8;8;
49644;PMS5003;36494;50.730;-1.932;2022-07-29T07:28:22;7;7;
49644;PMS5003;36494;50.730;-1.932;2022-07-29T07:30:47;10;9;
49644;PMS5003;36494;50.730;-1.932;2022-07-29T07:33:13;8;8;
49644;PMS5003;36494;50.730;-1.932;2022-07-29T07:35:39;11;11;
49644;PMS5003;36494;50.730;-1.932;2022-07-29T07:38:05;9;8;
49644;PMS5003;36494;50.730;-1.932;2022-07-29T07:40:30;10;10;
49644;PMS5003;36494;50.730;-1.932;2022-07-29T07:42:56;9;9;
49644;PMS5003;36494;50.730;-1.932;2022-07-29T07:45:21;10;10;
49644;PMS5003;36494;50.730;-1.932;2022-07-29T07:47:47;7;7;
49644;PMS5003;36494;50.730;-1.932;2022-07-29T07:50:12;9;8;
49644;PMS5003;36494;50.730;-1.932;2022-07-29T07:55:03;6;6;
49644;PMS5003;36494;50.730;-1.932;2022-07-29T07:57:28;7;7;
49644;PMS5003;36494;50.730;-1.932;2022-07-29T07:59:53;7;7;
49644;PMS5003;36494;50.730;-1.932;2022-07-29T08:02:18;7;6;
49644;PMS5003;36494;50.730;-1.932;2022-07-29T08:04:44;5;5;
49644;PMS5003;36494;50.730;-1.932;2022-07-29T08:07:09;7;7;
49644;PMS5003;36494;50.730;-1.932;2022-07-29T08:09:35;7;7;
49644;PMS5003;36494;50.730;-1.932;2022-07-29T08:12:00;10;9;
49644;PMS5003;36494;50.730;-1.932;2022-07-29T08:14:25;5;5;
49644;PMS5003;36494;50.730;-1.932;2022-07-29T08:16:51;4;4;
49644;PMS5003;36494;50.730;-1.932;2022-07-29T08:19:16;8;7;
49644;PMS5003;36494;50.730;-1.932;2022-07-29T08:21:41;5;5;
49644;PMS5003;36494;50.730;-1.932;2022-07-29T08:24:07;6;6;
49644;PMS5003;36494;50.730;-1.932;2022-07-29T08:26:32;6;6;
49644;PMS5003;36494;50.730;-1.932;2022-07-29T08:28:57;4;4;
49644;PMS5003;36494;50.730;-1.932;2022-07-29T08:31:23;5;4;
49644;PMS5003;36494;50.730;-1.932;2022-07-29T08:33:48;7;7;
49644;PMS5003;36494;50.730;-1.932;2022-07-29T08:36:13;6;5;
49644;PMS5003;36494;50.730;-1.932;2022-07-29T08:38:39;5;5;
49644;PMS5003;36494;50.730;-1.932;2022-07-29T08:41:04;5;5;
49644;PMS5003;36494;50.730;-1.932;2022-07-29T08:43:29;3;3;
49644;PMS5003;36494;50.730;-1.932;2022-07-29T08:45:54;4;4;
49644;PMS5003;36494;50.730;-1.932;2022-07-29T08:48:21;4;4;
49644;PMS5003;36494;50.730;-1.932;2022-07-29T08:50:45;6;6;
49644;PMS5003;36494;50.730;-1.932;2022-07-29T08:53:11;5;4;
49644;PMS5003;36494;50.730;-1.932;2022-07-29T08:55:35;5;5;
49644;PMS5003;36494;50.730;-1.932;2022-07-29T08:58:01;6;6;
49644;PMS5003;36494;50.730;-1.932;2022-07-29T09:00:26;6;6;
49644;PMS5003;36494;50.730;-1.932;2022-07-29T09:02:55;7;6;
49644;PMS5003;36494;50.730;-1.932;2022-07-29T09:05:16;5;5;
49644;PMS5003;36494;50.730;-1.932;2022-07-29T09:07:42;5;5;
49644;PMS5003;36494;50.730;-1.932;2022-07-29T09:10:07;5;5;
49644;PMS5003;36494;50.730;-1.932;2022-07-29T09:12:32;6;6;
49644;PMS5003;36494;50.730;-1.932;2022-07-29T09:14:58;7;7;
49644;PMS5003;36494;50.730;-1.932;2022-07-29T09:19:48;7;7;
49644;PMS5003;36494;50.730;-1.932;2022-07-29T09:22:28;4;4;
49644;PMS5003;36494;50.730;-1.932;2022-07-29T09:24:40;7;7;
49644;PMS5003;36494;50.730;-1.932;2022-07-29T09:27:07;6;6;
49644;PMS5003;36494;50.730;-1.932;2022-07-29T09:29:30;6;5;
49644;PMS5003;36494;50.730;-1.932;2022-07-29T09:31:55;6;6;
49644;PMS5003;36494;50.730;-1.932;2022-07-29T09:34:21;6;6;
49644;PMS5003;36494;50.730;-1.932;2022-07-29T09:36:46;7;7;
49644;PMS5003;36494;50.730;-1.932;2022-07-29T09:39:11;4;4;
49644;PMS5003;36494;50.730;-1.932;2022-07-29T09:41:45;5;5;
49644;PMS5003;36494;50.730;-1.932;2022-07-29T09:44:01;6;6;
49644;PMS5003;36494;50.730;-1.932;2022-07-29T09:46:27;7;7;
49644;PMS5003;36494;50.730;-1.932;2022-07-29T09:51:17;5;4;
49644;PMS5003;36494;50.730;-1.932;2022-07-29T09:53:42;8;8;
49644;PMS5003;36494;50.730;-1.932;2022-07-29T09:56:08;6;5;
49644;PMS5003;36494;50.730;-1.932;2022-07-29T09:58:33;7;7;
49644;PMS5003;36494;50.730;-1.932;2022-07-29T10:00:59;6;6;
49644;PMS5003;36494;50.730;-1.932;2022-07-29T10:03:24;7;7;
49644;PMS5003;36494;50.730;-1.932;2022-07-29T10:08:18;9;9;
49644;PMS5003;36494;50.730;-1.932;2022-07-29T10:10:41;6;6;
49644;PMS5003;36494;50.730;-1.932;2022-07-29T10:13:05;8;8;
49644;PMS5003;36494;50.730;-1.932;2022-07-29T10:15:31;8;8;
49644;PMS5003;36494;50.730;-1.932;2022-07-29T10:17:56;9;8;
49644;PMS5003;36494;50.730;-1.932;2022-07-29T10:20:21;7;7;
49644;PMS5003;36494;50.730;-1.932;2022-07-29T10:22:46;5;5;
49644;PMS5003;36494;50.730;-1.932;2022-07-29T10:25:11;8;8;
49644;PMS5003;36494;50.730;-1.932;2022-07-29T10:27:36;9;8;
49644;PMS5003;36494;50.730;-1.932;2022-07-29T10:30:02;10;10;
49644;PMS5003;36494;50.730;-1.932;2022-07-29T10:32:31;8;8;
49644;PMS5003;36494;50.730;-1.932;2022-07-29T10:34:58;9;9;
49644;PMS5003;36494;50.730;-1.932;2022-07-29T10:37:19;7;7;
49644;PMS5003;36494;50.730;-1.932;2022-07-29T10:39:46;8;8;
49644;PMS5003;36494;50.730;-1.932;2022-07-29T10:42:11;5;5;
49644;PMS5003;36494;50.730;-1.932;2022-07-29T10:44:34;6;6;
49644;PMS5003;36494;50.730;-1.932;2022-07-29T10:46:59;6;6;
49644;PMS5003;36494;50.730;-1.932;2022-07-29T10:49:25;5;5;
49644;PMS5003;36494;50.730;-1.932;2022-07-29T10:51:51;6;6;
49644;PMS5003;36494;50.730;-1.932;2022-07-29T10:54:15;6;6;
49644;PMS5003;36494;50.730;-1.932;2022-07-29T10:56:40;8;7;
49644;PMS5003;36494;50.730;-1.932;2022-07-29T11:01:30;5;5;
49644;PMS5003;36494;50.730;-1.932;2022-07-29T11:03:56;5;5;
49644;PMS5003;36494;50.730;-1.932;2022-07-29T11:06:21;6;6;
49644;PMS5003;36494;50.730;-1.932;2022-07-29T11:08:46;6;6;
49644;PMS5003;36494;50.730;-1.932;2022-07-29T11:13:44;5;4;
49644;PMS5003;36494;50.730;-1.932;2022-07-29T11:16:02;6;6;
49644;PMS5003;36494;50.730;-1.932;2022-07-29T11:18:27;7;6;
49644;PMS5003;36494;50.730;-1.932;2022-07-29T11:20:52;4;4;
49644;PMS5003;36494;50.730;-1.932;2022-07-29T11:23:18;5;5;
49644;PMS5003;36494;50.730;-1.932;2022-07-29T11:25:43;6;6;
49644;PMS5003;36494;50.730;-1.932;2022-07-29T11:28:09;6;6;
49644;PMS5003;36494;50.730;-1.932;2022-07-29T11:32:59;5;5;
49644;PMS5003;36494;50.730;-1.932;2022-07-29T11:35:24;7;7;
49644;PMS5003;36494;50.730;-1.932;2022-07-29T11:40:15;5;5;
49644;PMS5003;36494;50.730;-1.932;2022-07-29T11:42:42;8;8;
49644;PMS5003;36494;50.730;-1.932;2022-07-29T11:45:05;8;7;
49644;PMS5003;36494;50.730;-1.932;2022-07-29T11:47:31;6;6;
49644;PMS5003;36494;50.730;-1.932;2022-07-29T11:49:56;11;10;
49644;PMS5003;36494;50.730;-1.932;2022-07-29T11:52:21;8;8;
49644;PMS5003;36494;50.730;-1.932;2022-07-29T11:54:47;7;7;
49644;PMS5003;36494;50.730;-1.932;2022-07-29T11:57:12;8;8;
49644;PMS5003;36494;50.730;-1.932;2022-07-29T11:59:38;7;7;
49644;PMS5003;36494;50.730;-1.932;2022-07-29T12:02:03;10;8;
49644;PMS5003;36494;50.730;-1.932;2022-07-29T12:04:29;8;8;
49644;PMS5003;36494;50.730;-1.932;2022-07-29T12:06:54;7;7;
49644;PMS5003;36494;50.730;-1.932;2022-07-29T12:09:19;9;9;
49644;PMS5003;36494;50.730;-1.932;2022-07-29T12:11:45;6;6;
49644;PMS5003;36494;50.730;-1.932;2022-07-29T12:14:10;7;7;
49644;PMS5003;36494;50.730;-1.932;2022-07-29T12:16:35;7;7;
49644;PMS5003;36494;50.730;-1.932;2022-07-29T12:19:00;8;8;
49644;PMS5003;36494;50.730;-1.932;2022-07-29T12:21:26;6;6;
49644;PMS5003;36494;50.730;-1.932;2022-07-29T12:23:52;5;5;
49644;PMS5003;36494;50.730;-1.932;2022-07-29T12:26:16;6;5;
49644;PMS5003;36494;50.730;-1.932;2022-07-29T12:28:41;9;9;
49644;PMS5003;36494;50.730;-1.932;2022-07-29T12:31:12;5;5;
49644;PMS5003;36494;50.730;-1.932;2022-07-29T12:33:33;8;7;
49644;PMS5003;36494;50.730;-1.932;2022-07-29T12:35:59;7;7;
49644;PMS5003;36494;50.730;-1.932;2022-07-29T12:38:24;7;6;
49644;PMS5003;36494;50.730;-1.932;2022-07-29T12:40:49;7;7;
49644;PMS5003;36494;50.730;-1.932;2022-07-29T12:43:15;5;5;
49644;PMS5003;36494;50.730;-1.932;2022-07-29T12:45:40;8;8;
49644;PMS5003;36494;50.730;-1.932;2022-07-29T12:48:05;8;8;
49644;PMS5003;36494;50.730;-1.932;2022-07-29T12:50:30;11;11;
49644;PMS5003;36494;50.730;-1.932;2022-07-29T12:57:46;9;9;
49644;PMS5003;36494;50.730;-1.932;2022-07-29T13:00:12;10;10;
49644;PMS5003;36494;50.730;-1.932;2022-07-29T13:02:37;7;7;
49644;PMS5003;36494;50.730;-1.932;2022-07-29T13:05:02;8;8;
49644;PMS5003;36494;50.730;-1.932;2022-07-29T13:07:28;8;8;
49644;PMS5003;36494;50.730;-1.932;2022-07-29T13:09:52;6;6;
49644;PMS5003;36494;50.730;-1.932;2022-07-29T13:12:18;9;8;
49644;PMS5003;36494;50.730;-1.932;2022-07-29T13:14:44;8;8;
49644;PMS5003;36494;50.730;-1.932;2022-07-29T13:17:10;9;9;
49644;PMS5003;36494;50.730;-1.932;2022-07-29T13:19:35;8;8;
49644;PMS5003;36494;50.730;-1.932;2022-07-29T13:21:59;8;7;
49644;PMS5003;36494;50.730;-1.932;2022-07-29T13:24:24;11;10;
49644;PMS5003;36494;50.730;-1.932;2022-07-29T13:26:49;11;9;
49644;PMS5003;36494;50.730;-1.932;2022-07-29T13:29:15;9;9;
49644;PMS5003;36494;50.730;-1.932;2022-07-29T13:31:40;7;7;
49644;PMS5003;36494;50.730;-1.932;2022-07-29T13:34:06;8;7;
49644;PMS5003;36494;50.730;-1.932;2022-07-29T13:36:31;7;7;
49644;PMS5003;36494;50.730;-1.932;2022-07-29T13:38:56;9;8;
49644;PMS5003;36494;50.730;-1.932;2022-07-29T13:41:21;5;5;
49644;PMS5003;36494;50.730;-1.932;2022-07-29T13:43:47;7;7;
49644;PMS5003;36494;50.730;-1.932;2022-07-29T13:46:13;7;7;
49644;PMS5003;36494;50.730;-1.932;2022-07-29T13:48:38;6;6;
49644;PMS5003;36494;50.730;-1.932;2022-07-29T13:51:03;10;9;
49644;PMS5003;36494;50.730;-1.932;2022-07-29T13:53:29;7;7;
49644;PMS5003;36494;50.730;-1.932;2022-07-29T13:55:54;8;8;
49644;PMS5003;36494;50.730;-1.932;2022-07-29T13:58:20;8;7;
49644;PMS5003;36494;50.730;-1.932;2022-07-29T14:00:45;7;7;
49644;PMS5003;36494;50.730;-1.932;2022-07-29T14:03:10;9;8;
49644;PMS5003;36494;50.730;-1.932;2022-07-29T14:05:35;7;7;
49644;PMS5003;36494;50.730;-1.932;2022-07-29T14:08:01;8;8;
49644;PMS5003;36494;50.730;-1.932;2022-07-29T14:10:26;8;8;
49644;PMS5003;36494;50.730;-1.932;2022-07-29T14:12:51;8;8;
49644;PMS5003;36494;50.730;-1.932;2022-07-29T14:15:17;5;5;
49644;PMS5003;36494;50.730;-1.932;2022-07-29T14:17:42;5;5;
49644;PMS5003;36494;50.730;-1.932;2022-07-29T14:20:08;7;7;
49644;PMS5003;36494;50.730;-1.932;2022-07-29T14:22:33;7;7;
49644;PMS5003;36494;50.730;-1.932;2022-07-29T14:24:58;8;8;
49644;PMS5003;36494;50.730;-1.932;2022-07-29T14:27:23;7;6;
49644;PMS5003;36494;50.730;-1.932;2022-07-29T14:29:48;7;7;
49644;PMS5003;36494;50.730;-1.932;2022-07-29T14:32:14;10;10;
49644;PMS5003;36494;50.730;-1.932;2022-07-29T14:34:39;6;6;
49644;PMS5003;36494;50.730;-1.932;2022-07-29T14:37:05;8;8;
49644;PMS5003;36494;50.730;-1.932;2022-07-29T14:39:30;7;7;
49644;PMS5003;36494;50.730;-1.932;2022-07-29T14:41:56;8;8;
49644;PMS5003;36494;50.730;-1.932;2022-07-29T14:44:21;8;8;
49644;PMS5003;36494;50.730;-1.932;2022-07-29T14:46:46;8;8;
49644;PMS5003;36494;50.730;-1.932;2022-07-29T14:49:12;9;9;
49644;PMS5003;36494;50.730;-1.932;2022-07-29T14:51:37;10;10;
49644;PMS5003;36494;50.730;-1.932;2022-07-29T14:54:02;8;8;
49644;PMS5003;36494;50.730;-1.932;2022-07-29T14:56:27;8;7;
49644;PMS5003;36494;50.730;-1.932;2022-07-29T14:58:52;10;9;
49644;PMS5003;36494;50.730;-1.932;2022-07-29T15:01:18;9;8;
49644;PMS5003;36494;50.730;-1.932;2022-07-29T15:03:43;9;9;
49644;PMS5003;36494;50.730;-1.932;2022-07-29T15:06:08;7;7;
49644;PMS5003;36494;50.730;-1.932;2022-07-29T15:08:33;6;6;
49644;PMS5003;36494;50.730;-1.932;2022-07-29T15:10:59;8;8;
49644;PMS5003;36494;50.730;-1.932;2022-07-29T15:13:24;9;9;
49644;PMS5003;36494;50.730;-1.932;2022-07-29T15:15:50;11;11;
49644;PMS5003;36494;50.730;-1.932;2022-07-29T15:18:15;9;8;
49644;PMS5003;36494;50.730;-1.932;2022-07-29T15:20:40;10;10;
49644;PMS5003;36494;50.730;-1.932;2022-07-29T15:23:05;9;9;
49644;PMS5003;36494;50.730;-1.932;2022-07-29T15:25:31;11;11;
49644;PMS5003;36494;50.730;-1.932;2022-07-29T15:27:56;9;9;
49644;PMS5003;36494;50.730;-1.932;2022-07-29T15:30:21;9;9;
49644;PMS5003;36494;50.730;-1.932;2022-07-29T15:32:46;13;12;
49644;PMS5003;36494;50.730;-1.932;2022-07-29T15:35:12;10;10;
49644;PMS5003;36494;50.730;-1.932;2022-07-29T15:37:38;9;9;
49644;PMS5003;36494;50.730;-1.932;2022-07-29T15:40:03;8;8;
49644;PMS5003;36494;50.730;-1.932;2022-07-29T15:42:28;9;9;
49644;PMS5003;36494;50.730;-1.932;2022-07-29T15:44:53;9;9;
49644;PMS5003;36494;50.730;-1.932;2022-07-29T15:47:18;9;9;
49644;PMS5003;36494;50.730;-1.932;2022-07-29T15:49:44;10;10;
49644;PMS5003;36494;50.730;-1.932;2022-07-29T15:52:09;10;10;
49644;PMS5003;36494;50.730;-1.932;2022-07-29T15:54:35;9;9;
49644;PMS5003;36494;50.730;-1.932;2022-07-29T15:57:00;10;9;
49644;PMS5003;36494;50.730;-1.932;2022-07-29T15:59:25;9;9;
49644;PMS5003;36494;50.730;-1.932;2022-07-29T16:01:51;9;8;
49644;PMS5003;36494;50.730;-1.932;2022-07-29T16:04:16;9;9;
49644;PMS5003;36494;50.730;-1.932;2022-07-29T16:06:41;9;9;
49644;PMS5003;36494;50.730;-1.932;2022-07-29T16:09:07;10;10;
49644;PMS5003;36494;50.730;-1.932;2022-07-29T16:11:32;9;8;
49644;PMS5003;36494;50.730;-1.932;2022-07-29T16:13:57;9;9;
49644;PMS5003;36494;50.730;-1.932;2022-07-29T16:16:22;11;11;
49644;PMS5003;36494;50.730;-1.932;2022-07-29T16:18:48;9;8;
49644;PMS5003;36494;50.730;-1.932;2022-07-29T16:21:13;11;11;
49644;PMS5003;36494;50.730;-1.932;2022-07-29T16:23:38;9;9;
49644;PMS5003;36494;50.730;-1.932;2022-07-29T16:26:03;11;11;
49644;PMS5003;36494;50.730;-1.932;2022-07-29T16:28:29;13;13;
49644;PMS5003;36494;50.730;-1.932;2022-07-29T16:30:54;10;10;